Nicolas Mina

Chefscout - Deportivo Pasto
3 Dez 2028
Sonntag
Verarbeitung

Persönlichkeit

Anpassungsfähigkeit (4) Ehrgeiz (8) Kontroverse (8) Loyalität (14) Druck (15) Professionalität (4) Fairness (10) Temperament (17)

Profil

Trainerstil Demokratisch
Lizenz Nationale B
Entschlossenheit 6
Menschenführung 10
Motivation 7
Disziplin 10
Arbeitszufriedenheit
100%
Ermüdung
0%
Rolle Chefscout
Gehalt 40.1K p/W
Vertrag 14.03.2030

Leistung

Verhalten Gut
Trainingseffektivität
26%
Spielerentwicklung
55%
Verletzungsprävention
35%
Taktische Umsetzung
30%

Letzte Ereignisse

Nahm an einer Scouting-Besprechung teil 7T her
Empfahl ein Transferziel 7T her
Nahm an einer Scouting-Besprechung teil 14T her
Empfahl ein Transferziel 14T her
Nahm an einer Scouting-Besprechung teil 21T her
Empfahl ein Transferziel 21T her
Geburtstag 21T her
Empfahl ein Transferziel 28T her

Aktuell beobachtet

178
Spieler Verein Status Fähigkeit Vertrauen Beobachtet Zuletzt beobachtet Letzte Stimme
Luca Williams-Barnett Walsall Aktiv 110 / 124 40% 19 30.05.2028 -
Ryan Kavuma-McQueen Accrington Stanley Aktiv 132 / 125 40% 5 30.05.2028 -
Josh Nichols Oldham Athletic Aktiv 119 / 125 40% 4 26.05.2028 -
André Miranda Porto Aktiv 110 / 113 40% 6 25.05.2028 -
Abdoulaye Allamine Stars Jeunes Talents Aktiv 77 / 72 40% 2 25.05.2028 -
Ben Broggio Mansfield Town Aktiv 116 / 109 40% 5 24.05.2028 -
Alphadjo Cissé Lecce Aktiv 134 / 144 40% 3 24.05.2028 -
Henrique Carmo Sochi Aktiv 131 / 147 40% 4 23.05.2028 -
Louis Zecevic-John Colchester United Aktiv 109 / 104 40% 1 23.05.2028 -
Shea Lacey Crystal Palace Aktiv 122 / 151 40% 3 20.05.2028 -
Fletcher Boyd Accrington Stanley Aktiv 88 / 123 40% 2 18.05.2028 -
Gabriel Mec Feirense Aktiv 133 / 118 40% 3 17.05.2028 -
Leo Pecover Swindon Town Aktiv 81 / 105 40% 1 17.05.2028 -
Ryan McAidoo Oldham Athletic Aktiv 112 / 117 40% 7 16.05.2028 -
Gabe Forsyth Colchester United Aktiv 96 / 116 40% 2 09.05.2028 -
Eli Junior Kroupi Bournemouth Aktiv 162 / 165 40% 5 07.05.2028 -
Dani Díaz Real Sociedad Aktiv 106 / 140 40% 1 07.05.2028 -
Rio Ngumoha Plymouth Argyle Aktiv 142 / 144 40% 4 04.05.2028 -
Luca Meirelles Kudrivka Aktiv 130 / 121 40% 4 02.05.2028 -
Siyabonga Mabena Bidvest Wits Aktiv 140 / 118 40% 6 27.04.2028 -
Trey Nyoni Rotherham United Aktiv 136 / 143 40% 3 27.04.2028 -
Ibrahim Fullah Charlton Athletic Aktiv 116 / 121 40% 2 19.04.2028 -
Kerim Alajbegović Modena Aktiv 121 / 142 40% 2 18.04.2028 -
Giovanni Cantizano Fulham Aktiv 121 / 125 40% 2 10.04.2028 -
İsak Vural Audace Cerignola Aktiv 112 / 126 40% 1 09.04.2028 -
Oscar Schwartau Norwich City Aktiv 121 / 124 40% 3 07.04.2028 -
Jake Evans Crewe Alexandra Aktiv 129 / 126 40% 2 06.04.2028 -
Josh Acheampong Everton Aktiv 161 / 139 40% 3 04.04.2028 -
Babis Kostoulas Oxford United Aktiv 158 / 136 40% 4 04.04.2028 -
Igor Tyjon Barrow AFC Aktiv 103 / 106 40% 1 30.03.2028 -
Lwanda Mbanjwa Platinum Stars Aktiv 94 / 98 40% 2 28.03.2028 -
Daniel Banjaqui Benfica Aktiv 132 / 116 40% 3 27.03.2028 -
Oskar Pietuszewski Estrela da Amadora Aktiv 124 / 140 40% 3 20.03.2028 -
Amin Nabizada Exeter City Aktiv 123 / 116 40% 2 14.03.2028 -
Omar Khedr Gillingham Aktiv 117 / 133 40% 1 13.03.2028 -
Luighi Palmeiras Aktiv 99 / 120 40% 3 09.03.2028 -
Honest Ahanor Atalanta Aktiv 125 / 133 40% 3 07.03.2028 -
Isaque Obolon Aktiv 106 / 127 40% 1 26.02.2028 -
Lander Astiazarán Real Sociedad Aktiv 123 / 131 40% 2 25.02.2028 -
Nana Nuhu WAFA Aktiv 95 / 102 40% 1 18.02.2028 -
Luka Andrade Montevideo City Torque Aktiv 99 / 112 40% 4 05.02.2028 -
Gomolemo Kekana Maritzburg United Aktiv 99 / 103 40% 2 04.02.2028 -
Francisco Triver River Plate Aktiv 91 / 94 40% 1 03.02.2028 -
Jeremías Merlo Gimnasia La Plata Aktiv 130 / 130 40% 5 31.01.2028 -
Alex Verón Vélez Aktiv 110 / 129 40% 2 31.01.2028 -
Ruben Ramos LA Galaxy Aktiv 83 / 100 40% 4 28.01.2028 -
Nestory Irankunda Watford Aktiv 129 / 123 40% 1 28.01.2028 -
Kofi Duffour Cherepovets Aktiv 56 / 73 40% 1 27.01.2028 -
Matías Arias Vélez Aktiv 121 / 118 40% 2 26.01.2028 -
Esquerdinha Notts County Aktiv 112 / 142 40% 2 26.01.2028 -
Juan Rodríguez Cerro Largo Aktiv 98 / 107 40% 1 25.01.2028 -
Joel Medina Independiente Aktiv 101 / 122 40% 2 24.01.2028 -
Rémi Himbert AC Ajaccio Aktiv 131 / 121 40% 2 23.01.2028 -
Ramiro Jara Racing Aktiv 78 / 96 40% 1 22.01.2028 -
Lewis Orford Crewe Alexandra Aktiv 116 / 120 40% 1 19.01.2028 -
Dylan Cabral Arsenal Aktiv 102 / 113 40% 4 16.01.2028 -
Benjamín Rodríguez Albion Aktiv 93 / 92 40% 1 09.01.2028 -
Lucas Camejo River Plate Aktiv 76 / 92 40% 1 06.01.2028 -
Godwin Oham Warri Wolves Aktiv 104 / 80 40% 1 28.06.2027 -
Riley Owen Stevenage Aktiv 88 / 126 40% 1 28.06.2027 -
Jaime Acosta Barranquilla Aktiv 85 / 87 44% 1 21.06.2027 -
Miguel Figueiredo Benfica Aktiv 112 / 112 40% 1 21.06.2027 -
Felipe Faúndez O'Higgins Aktiv 88 / 102 40% 1 21.06.2027 -
Luke Baartman Ajax Cape Town Aktiv 99 / 121 40% 3 30.05.2027 -
Stanley Amon Bayelsa United Aktiv 70 / 108 40% 2 30.05.2027 -
Gosiame Ngobeni New Edubiase United Aktiv 68 / 59 40% 1 26.05.2027 -
Ryan Oné Sheffield United Aktiv 109 / 134 40% 4 21.05.2027 -
Leo Castledine Middlesbrough Aktiv 140 / 139 40% 1 20.05.2027 -
Lorenzo De Leo Renate Aktiv 89 / 92 40% 2 19.05.2027 -
Giuseppe Coppola Picerno Aktiv 116 / 98 40% 1 19.05.2027 -
Fletcher Holman Swindon Town Aktiv 83 / 106 40% 4 18.05.2027 -
Darlvin Yeboah Bechem United Aktiv 98 / 102 40% 6 13.05.2027 -
Matvii Ponomarenko Dynamo Kyiv Aktiv 97 / 137 40% 4 12.05.2027 -
George Brown Sheffield Wednesday Aktiv 79 / 116 40% 2 07.05.2027 -
Ben Ahmed Kohili Paradou Aktiv 119 / 123 40% 2 05.05.2027 -
Serge Daura PWD Bamenda Aktiv 119 / 104 40% 3 03.05.2027 -
Teboho Zwane Ajax Cape Town Aktiv 91 / 99 40% 1 03.05.2027 -
Dilan Neves Benfica Aktiv 80 / 94 40% 1 02.05.2027 -
Joseph George Aigle Royal de Moungo Aktiv 106 / 78 40% 2 30.04.2027 -
Naledi Hlongwane Wa All Stars Aktiv 89 / 87 40% 7 28.04.2027 -
Rafael Moreno Atletico Venezuela Aktiv 105 / 121 40% 5 26.04.2027 -
Dani Ángel Sampdoria Aktiv 84 / 114 40% 4 23.04.2027 -
Máximo Seggio Crawley Town Aktiv 85 / 78 40% 2 23.04.2027 -
Nicolás Campos Central Espanol Aktiv 83 / 96 40% 1 20.04.2027 -
Jonás Luna Wanderers Aktiv 119 / 115 40% 4 16.04.2027 -
Miloš Jovičić Zabbar St. Patrick Aktiv 98 / 110 40% 3 13.04.2027 -
Borna Knezović Casarano Aktiv 118 / 93 40% 1 13.04.2027 -
Sergey Gaiduk Salyut Aktiv 82 / 73 40% 2 10.04.2027 -
Mateus Mané Burnley Aktiv 127 / 157 40% 6 09.04.2027 -
Michael Noumon Heart of Lions Aktiv 99 / 80 40% 2 08.04.2027 -
Rocco Vata Watford Aktiv 104 / 121 40% 4 03.04.2027 -
Víctor Guzmán Sporting CP Aktiv 111 / 85 40% 2 01.04.2027 -
Njabulo Hlongwane AS Korofina Aktiv 62 / 91 40% 1 01.04.2027 -
Will Lankshear Middlesbrough Aktiv 123 / 137 40% 1 29.03.2027 -
Elijas Gunnergård Ortan Ahrobiznes Aktiv 102 / 68 40% 1 27.03.2027 -
Eduardo Lozano Botafogo Aktiv 139 / 159 40% 2 24.03.2027 -
Nahuel da Silva Montevideo City Torque Aktiv 94 / 119 40% 1 22.03.2027 -
Tiago Pucciarelli IF Elfsborg Aktiv 103 / 117 40% 4 16.03.2027 -
Bariş Kalaycı Fatih Karagumruk Aktiv 123 / 100 40% 1 16.03.2027 -
Mikel Gogorza Brondby Aktiv 142 / 122 40% 3 10.03.2027 -
Nazif Inoussa Benfica Aktiv 69 / 100 40% 1 28.02.2027 -
Roberto Iliev Slavia Sofia Aktiv 102 / 95 40% 1 23.02.2027 -
Ousseynou Seck Randers Aktiv 88 / 133 40% 1 22.02.2027 -
Ethan Williams Peterborough United Aktiv 121 / 109 40% 5 17.02.2027 -
Benjamin Jack Sliema Wanderers Aktiv 74 / 98 40% 1 15.02.2027 -
Rivaldo Mkhize Black Aces Aktiv 68 / 103 40% 1 15.02.2027 -
Zack Nelson Ternana Aktiv 106 / 88 40% 5 11.02.2027 -
Asanele Bonani Chippa United Aktiv 77 / 109 40% 1 09.02.2027 -
Sebastián Bonilla Victoriia Sumy Aktiv 74 / 86 40% 1 08.02.2027 -
Romelle Donovan Brentford Aktiv 132 / 120 40% 2 07.02.2027 -
Fabijan Krivak Sigma Olomouc Aktiv 134 / 116 40% 1 07.02.2027 -
Olivier Leroux Mouscron Aktiv 109 / 120 40% 1 05.02.2027 -
Tomás Abdelnur Santos Laguna Aktiv 102 / 88 40% 1 03.02.2027 -
Jon Eceizabarrena Real Sociedad Aktiv 105 / 92 40% 1 29.01.2027 -
Calum Agius Crewe Alexandra Aktiv 107 / 85 40% 2 27.01.2027 -
Bazoumana Touré Newcastle United Aktiv 134 / 160 40% 1 27.01.2027 -
Lucas Ferreira Shakhtar Aktiv 125 / 129 40% 2 25.01.2027 -
Martin Gjorgievski Zbrojovka Brno Aktiv 116 / 126 40% 1 24.01.2027 -
Bobby Clark Derby County Aktiv 117 / 132 40% 1 23.01.2027 -
Mohamadou Kanté Crawley Town Aktiv 116 / 135 40% 3 22.01.2027 -
Othmane Maamma Watford Aktiv 133 / 113 40% 2 21.01.2027 -
Yael Padilla Tijuana Aktiv 127 / 109 40% 2 20.01.2027 -
Gorka Gorosabel Real Sociedad Aktiv 96 / 123 40% 2 19.01.2027 -
Robert FC Copenhagen Aktiv 112 / 124 40% 1 16.01.2027 -
Kyriani Sabbe Club Brugge Aktiv 109 / 141 40% 1 15.01.2027 -
Thalente Mbatha Orlando Pirates Aktiv 122 / 123 40% 1 08.01.2027 -
Paulo Victor Queretaro Aktiv 94 / 129 40% 1 08.01.2027 -
Pedro Ramírez Deportivo Riestra Aktiv 123 / 114 40% 1 05.01.2027 -
Ethan Pye Stockport County Aktiv 97 / 110 40% 1 05.01.2027 -
Gianluca Prestianni Benfica Aktiv 124 / 158 40% 1 29.12.2026 -
Veljko Radosavljević Cukaricki Aktiv 102 / 93 40% 1 29.12.2026 -
Jackson Porozo Tijuana Aktiv 127 / 117 40% 1 03.12.2026 -
Justin Devenny Stoke City Aktiv 117 / 143 40% 1 02.12.2026 -
Sampson Dweh Mallorca Aktiv 133 / 134 66% 1 01.12.2026 Befürworten
Matías Contrera Hrvatski Dragovoljac Aktiv 92 / 95 40% 3 29.11.2026 -
Ezekiel Kwame Alladoh Philadelphia Union Aktiv 105 / 105 40% 1 28.11.2026 -
Bogdan Petrović TSC Aktiv 111 / 125 40% 1 26.11.2026 -
Luciano Inverso Betis Aktiv 103 / 136 40% 1 22.11.2026 -
Gabriel Monjes Hamrun Spartans Aktiv 69 / 96 40% 1 22.11.2026 -
Alan Torterolo Defensor Sporting Aktiv 82 / 86 40% 2 18.11.2026 -
Joaquín Tobio Burgos Pachuca Aktiv 110 / 124 40% 3 17.11.2026 -
Youssoufa Moukoko FC Copenhagen Aktiv 137 / 127 40% 3 14.11.2026 -
Juan David Delgado Atvidaberg Aktiv 58 / 67 40% 1 14.11.2026 -
Juan Francisco Rossel Puebla Aktiv 76 / 91 40% 2 11.11.2026 -
Jerónimo Russo Newell's Old Boys Aktiv 105 / 99 40% 2 11.11.2026 -
David Fernández O'Higgins Aktiv 106 / 108 40% 1 08.11.2026 -
Lucas Girotti Gillingham Aktiv 61 / 76 40% 1 01.11.2026 -
Tomás Salteño Rosario Central Aktiv 83 / 90 40% 1 25.10.2026 -
Ramiro Hernandes Belgrano Aktiv 130 / 124 40% 1 25.10.2026 -
Diego Gaitán Maipú Aktiv 115 / 113 40% 1 25.10.2026 -
Jhon Aponza Boca Juniors Aktiv 114 / 124 40% 4 18.10.2026 -
Lautaro Gutiérrez Belgrano Aktiv 100 / 100 40% 1 17.10.2026 -
Brandon Márquez Sarmiento Aktiv 91 / 101 40% 1 16.10.2026 -
Didier Dawson Envigado Aktiv 117 / 110 40% 1 16.10.2026 -
Leandro Córdoba Racing Aktiv 106 / 112 40% 1 13.10.2026 -
Themba Dala Black Aces Aktiv 130 / 123 40% 1 06.10.2026 -
Facundo Di Biasi Gimnasia La Plata Aktiv 104 / 132 40% 1 05.10.2026 -
Román Fernández Atlético Tucumán Aktiv 84 / 98 40% 1 30.09.2026 -
Nicolás Sosa La Luz Aktiv 93 / 85 40% 1 20.09.2026 -
Thiago Ponce Rosario Central Aktiv 87 / 114 40% 1 12.09.2026 -
Agustín Medina Lanús Aktiv 99 / 123 40% 1 10.09.2026 -
Leonel Flores Boca Juniors Aktiv 110 / 99 40% 1 04.09.2026 -
Bautista Pereira Danubio Aktiv 77 / 95 40% 1 01.09.2026 -
Bautista Casas Medina Alvarado Aktiv 75 / 80 40% 1 28.08.2026 -
Massimo Campana Cesar Vallejo Aktiv 71 / 96 40% 1 27.08.2026 -
Mauricio Di Gubio Godoy Cruz Aktiv 83 / 76 40% 1 21.08.2026 -
Gastón Silvero Barracas Central Aktiv 91 / 95 40% 1 20.08.2026 -
Ángel González Sportivo Luqueno Aktiv 89 / 101 40% 1 19.08.2026 -
Aldo Pérez Guarani Aktiv 105 / 109 40% 1 13.08.2026 -
Jorge Hernández Tijuana Aktiv 104 / 115 40% 1 13.08.2026 -
Beycker Velásquez Zamora Aktiv 109 / 102 40% 1 11.08.2026 -
Sipho Chaine Orlando Pirates Aktiv 130 / 116 40% 1 10.08.2026 -
Francisco Mongelos Sportivo Luqueno Aktiv 90 / 96 40% 1 08.08.2026 -
Drake Callender Minnesota United FC Aktiv 111 / 116 40% 1 06.08.2026 -
Jorge Morel Cerro Porteno Aktiv 108 / 127 40% 1 05.08.2026 -
Sebastián Pereira Union Espanola Aktiv 96 / 99 40% 1 03.08.2026 -
Jorge Sánchez Atlas Aktiv 144 / 129 40% 1 03.08.2026 -
Víctor Felipe Méndez Colo-Colo Aktiv 131 / 106 40% 1 01.08.2026 -